sensor_id;sensor_type;location;lat;lon;timestamp;temperature;humidity
15105;DHT22;7653;48.994;9.212;2023-11-21T00:02:07;8.70;92.30
15105;DHT22;7653;48.994;9.212;2023-11-21T00:04:33;8.80;92.70
15105;DHT22;7653;48.994;9.212;2023-11-21T00:06:58;8.80;92.70
15105;DHT22;7653;48.994;9.212;2023-11-21T00:09:24;8.80;92.90
15105;DHT22;7653;48.994;9.212;2023-11-21T00:11:49;8.90;93.10
15105;DHT22;7653;48.994;9.212;2023-11-21T00:14:15;9.00;93.10
15105;DHT22;7653;48.994;9.212;2023-11-21T00:16:41;9.00;92.30
15105;DHT22;7653;48.994;9.212;2023-11-21T00:19:07;8.80;92.10
15105;DHT22;7653;48.994;9.212;2023-11-21T00:21:32;8.80;92.10
15105;DHT22;7653;48.994;9.212;2023-11-21T00:23:58;8.90;92.70
15105;DHT22;7653;48.994;9.212;2023-11-21T00:26:24;9.00;92.60
15105;DHT22;7653;48.994;9.212;2023-11-21T00:28:50;8.80;91.90
15105;DHT22;7653;48.994;9.212;2023-11-21T00:31:16;8.60;92.10
15105;DHT22;7653;48.994;9.212;2023-11-21T00:33:41;8.60;92.30
15105;DHT22;7653;48.994;9.212;2023-11-21T00:36:08;8.60;92.70
15105;DHT22;7653;48.994;9.212;2023-11-21T00:38:35;8.60;92.90
15105;DHT22;7653;48.994;9.212;2023-11-21T00:41:01;8.70;93.00
15105;DHT22;7653;48.994;9.212;2023-11-21T00:43:28;8.70;93.00
15105;DHT22;7653;48.994;9.212;2023-11-21T00:45:54;8.80;93.00
15105;DHT22;7653;48.994;9.212;2023-11-21T00:48:19;8.80;93.00
15105;DHT22;7653;48.994;9.212;2023-11-21T00:50:45;8.90;93.10
15105;DHT22;7653;48.994;9.212;2023-11-21T00:53:10;8.80;92.80
15105;DHT22;7653;48.994;9.212;2023-11-21T00:55:37;8.80;92.60
15105;DHT22;7653;48.994;9.212;2023-11-21T00:58:05;8.80;93.20
15105;DHT22;7653;48.994;9.212;2023-11-21T01:00:33;8.70;92.40
15105;DHT22;7653;48.994;9.212;2023-11-21T01:02:58;8.90;92.80
15105;DHT22;7653;48.994;9.212;2023-11-21T01:05:24;8.90;92.60
15105;DHT22;7653;48.994;9.212;2023-11-21T01:07:50;9.00;92.20
15105;DHT22;7653;48.994;9.212;2023-11-21T01:10:15;9.00;91.80
15105;DHT22;7653;48.994;9.212;2023-11-21T01:12:42;9.00;91.30
15105;DHT22;7653;48.994;9.212;2023-11-21T01:15:08;8.90;91.50
15105;DHT22;7653;48.994;9.212;2023-11-21T01:17:34;8.80;91.90
15105;DHT22;7653;48.994;9.212;2023-11-21T01:20:01;8.70;92.20
15105;DHT22;7653;48.994;9.212;2023-11-21T01:22:26;8.60;92.70
15105;DHT22;7653;48.994;9.212;2023-11-21T01:24:53;8.60;92.90
15105;DHT22;7653;48.994;9.212;2023-11-21T01:27:19;8.60;92.90
15105;DHT22;7653;48.994;9.212;2023-11-21T01:29:45;8.60;93.00
15105;DHT22;7653;48.994;9.212;2023-11-21T01:32:11;8.70;93.40
15105;DHT22;7653;48.994;9.212;2023-11-21T01:34:37;8.80;93.70
15105;DHT22;7653;48.994;9.212;2023-11-21T01:37:03;8.70;93.60
15105;DHT22;7653;48.994;9.212;2023-11-21T01:39:30;8.70;93.40
15105;DHT22;7653;48.994;9.212;2023-11-21T01:41:57;8.70;93.00
15105;DHT22;7653;48.994;9.212;2023-11-21T01:44:24;8.70;93.20
15105;DHT22;7653;48.994;9.212;2023-11-21T01:46:50;8.60;93.00
15105;DHT22;7653;48.994;9.212;2023-11-21T01:49:17;8.60;92.90
15105;DHT22;7653;48.994;9.212;2023-11-21T01:51:47;8.60;92.90
15105;DHT22;7653;48.994;9.212;2023-11-21T01:54:18;8.60;92.90
15105;DHT22;7653;48.994;9.212;2023-11-21T01:56:46;8.60;92.70
15105;DHT22;7653;48.994;9.212;2023-11-21T01:59:15;8.80;92.60
15105;DHT22;7653;48.994;9.212;2023-11-21T02:01:43;8.80;92.20
15105;DHT22;7653;48.994;9.212;2023-11-21T02:04:09;8.90;91.60
15105;DHT22;7653;48.994;9.212;2023-11-21T02:06:35;8.90;91.40
15105;DHT22;7653;48.994;9.212;2023-11-21T02:09:01;8.80;91.00
15105;DHT22;7653;48.994;9.212;2023-11-21T02:11:26;8.80;91.20
15105;DHT22;7653;48.994;9.212;2023-11-21T02:13:53;8.90;91.90
15105;DHT22;7653;48.994;9.212;2023-11-21T02:16:19;8.90;91.90
15105;DHT22;7653;48.994;9.212;2023-11-21T02:18:47;8.80;92.10
15105;DHT22;7653;48.994;9.212;2023-11-21T02:21:14;8.90;92.30
15105;DHT22;7653;48.994;9.212;2023-11-21T02:23:39;8.80;92.90
15105;DHT22;7653;48.994;9.212;2023-11-21T02:26:10;8.90;93.10
15105;DHT22;7653;48.994;9.212;2023-11-21T02:28:36;8.80;92.90
15105;DHT22;7653;48.994;9.212;2023-11-21T02:31:01;8.90;93.10
15105;DHT22;7653;48.994;9.212;2023-11-21T02:33:30;8.90;93.40
15105;DHT22;7653;48.994;9.212;2023-11-21T02:36:02;8.80;93.00
15105;DHT22;7653;48.994;9.212;2023-11-21T02:38:27;8.90;93.10
15105;DHT22;7653;48.994;9.212;2023-11-21T02:40:53;9.10;93.20
15105;DHT22;7653;48.994;9.212;2023-11-21T02:43:19;9.20;93.20
15105;DHT22;7653;48.994;9.212;2023-11-21T02:45:44;9.00;92.60
15105;DHT22;7653;48.994;9.212;2023-11-21T02:48:10;9.10;93.00
15105;DHT22;7653;48.994;9.212;2023-11-21T02:50:36;8.90;92.60
15105;DHT22;7653;48.994;9.212;2023-11-21T02:53:03;8.90;93.10
15105;DHT22;7653;48.994;9.212;2023-11-21T02:55:31;8.80;93.00
15105;DHT22;7653;48.994;9.212;2023-11-21T02:58:00;8.80;93.00
15105;DHT22;7653;48.994;9.212;2023-11-21T03:00:26;8.90;93.50
15105;DHT22;7653;48.994;9.212;2023-11-21T03:02:51;8.90;93.40
15105;DHT22;7653;48.994;9.212;2023-11-21T03:05:17;8.90;93.10
15105;DHT22;7653;48.994;9.212;2023-11-21T03:07:43;8.90;93.20
15105;DHT22;7653;48.994;9.212;2023-11-21T03:10:09;8.90;93.30
15105;DHT22;7653;48.994;9.212;2023-11-21T03:12:39;8.90;93.40
15105;DHT22;7653;48.994;9.212;2023-11-21T03:15:06;8.90;93.50
15105;DHT22;7653;48.994;9.212;2023-11-21T03:17:32;8.90;93.50
15105;DHT22;7653;48.994;9.212;2023-11-21T03:19:59;8.90;93.50
15105;DHT22;7653;48.994;9.212;2023-11-21T03:22:25;9.00;93.70
15105;DHT22;7653;48.994;9.212;2023-11-21T03:24:51;8.90;93.60
15105;DHT22;7653;48.994;9.212;2023-11-21T03:27:18;8.90;93.80
15105;DHT22;7653;48.994;9.212;2023-11-21T03:29:44;8.90;94.00
15105;DHT22;7653;48.994;9.212;2023-11-21T03:32:10;8.80;93.90
15105;DHT22;7653;48.994;9.212;2023-11-21T03:34:56;8.80;93.90
15105;DHT22;7653;48.994;9.212;2023-11-21T03:37:23;8.80;94.10
15105;DHT22;7653;48.994;9.212;2023-11-21T03:39:48;8.80;94.50
15105;DHT22;7653;48.994;9.212;2023-11-21T03:42:14;8.90;94.20
15105;DHT22;7653;48.994;9.212;2023-11-21T03:44:40;9.00;94.20
15105;DHT22;7653;48.994;9.212;2023-11-21T03:47:05;9.00;94.00
15105;DHT22;7653;48.994;9.212;2023-11-21T03:49:31;9.00;93.70
15105;DHT22;7653;48.994;9.212;2023-11-21T03:51:58;9.00;93.20
15105;DHT22;7653;48.994;9.212;2023-11-21T03:54:24;9.00;93.10
15105;DHT22;7653;48.994;9.212;2023-11-21T03:56:49;8.90;93.10
15105;DHT22;7653;48.994;9.212;2023-11-21T03:59:15;8.90;93.40
15105;DHT22;7653;48.994;9.212;2023-11-21T04:01:41;8.90;93.40
15105;DHT22;7653;48.994;9.212;2023-11-21T04:04:06;8.80;93.60
15105;DHT22;7653;48.994;9.212;2023-11-21T04:06:32;8.80;93.50
15105;DHT22;7653;48.994;9.212;2023-11-21T04:08:58;8.80;93.70
15105;DHT22;7653;48.994;9.212;2023-11-21T04:11:24;8.80;94.00
15105;DHT22;7653;48.994;9.212;2023-11-21T04:13:50;8.80;94.00
15105;DHT22;7653;48.994;9.212;2023-11-21T04:16:15;8.80;94.10
15105;DHT22;7653;48.994;9.212;2023-11-21T04:18:41;8.70;93.80
15105;DHT22;7653;48.994;9.212;2023-11-21T04:21:07;8.70;94.10
15105;DHT22;7653;48.994;9.212;2023-11-21T04:23:33;8.70;94.50
15105;DHT22;7653;48.994;9.212;2023-11-21T04:25:59;8.80;94.70
15105;DHT22;7653;48.994;9.212;2023-11-21T04:28:25;8.90;94.50
15105;DHT22;7653;48.994;9.212;2023-11-21T04:30:51;8.80;94.50
15105;DHT22;7653;48.994;9.212;2023-11-21T04:33:17;8.70;94.70
15105;DHT22;7653;48.994;9.212;2023-11-21T04:35:42;8.70;94.60
15105;DHT22;7653;48.994;9.212;2023-11-21T04:38:08;8.60;94.60
15105;DHT22;7653;48.994;9.212;2023-11-21T04:40:34;8.70;95.00
15105;DHT22;7653;48.994;9.212;2023-11-21T04:42:59;8.70;95.00
15105;DHT22;7653;48.994;9.212;2023-11-21T04:45:25;8.70;95.30
15105;DHT22;7653;48.994;9.212;2023-11-21T04:47:50;8.70;95.30
15105;DHT22;7653;48.994;9.212;2023-11-21T04:50:18;8.70;95.30
15105;DHT22;7653;48.994;9.212;2023-11-21T04:52:44;8.80;95.40
15105;DHT22;7653;48.994;9.212;2023-11-21T04:55:10;8.80;95.40
15105;DHT22;7653;48.994;9.212;2023-11-21T04:57:36;8.70;95.40
15105;DHT22;7653;48.994;9.212;2023-11-21T05:00:03;8.70;95.30
15105;DHT22;7653;48.994;9.212;2023-11-21T05:02:34;8.60;95.80
15105;DHT22;7653;48.994;9.212;2023-11-21T05:05:00;8.60;95.70
15105;DHT22;7653;48.994;9.212;2023-11-21T05:07:26;8.60;95.80
15105;DHT22;7653;48.994;9.212;2023-11-21T05:09:55;8.70;96.00
15105;DHT22;7653;48.994;9.212;2023-11-21T05:12:24;8.70;96.00
15105;DHT22;7653;48.994;9.212;2023-11-21T05:14:51;8.70;96.00
15105;DHT22;7653;48.994;9.212;2023-11-21T05:17:16;8.70;95.90
15105;DHT22;7653;48.994;9.212;2023-11-21T05:19:42;8.60;95.90
15105;DHT22;7653;48.994;9.212;2023-11-21T05:22:11;8.70;95.90
15105;DHT22;7653;48.994;9.212;2023-11-21T05:24:37;8.70;96.10
15105;DHT22;7653;48.994;9.212;2023-11-21T05:27:04;8.70;96.00
15105;DHT22;7653;48.994;9.212;2023-11-21T05:29:30;8.60;96.00
15105;DHT22;7653;48.994;9.212;2023-11-21T05:31:56;8.60;96.30
15105;DHT22;7653;48.994;9.212;2023-11-21T05:34:22;8.70;96.00
15105;DHT22;7653;48.994;9.212;2023-11-21T05:36:50;8.70;96.10
15105;DHT22;7653;48.994;9.212;2023-11-21T05:39:15;8.70;96.00
15105;DHT22;7653;48.994;9.212;2023-11-21T05:41:43;8.70;95.90
15105;DHT22;7653;48.994;9.212;2023-11-21T05:44:08;8.70;95.90
15105;DHT22;7653;48.994;9.212;2023-11-21T05:46:34;8.70;95.80
15105;DHT22;7653;48.994;9.212;2023-11-21T05:49:00;8.70;95.70
15105;DHT22;7653;48.994;9.212;2023-11-21T05:51:26;8.70;95.60
15105;DHT22;7653;48.994;9.212;2023-11-21T05:53:51;8.80;95.90
15105;DHT22;7653;48.994;9.212;2023-11-21T05:56:17;8.80;95.60
15105;DHT22;7653;48.994;9.212;2023-11-21T05:58:43;8.80;95.60
15105;DHT22;7653;48.994;9.212;2023-11-21T06:01:09;8.70;95.50
15105;DHT22;7653;48.994;9.212;2023-11-21T06:03:38;8.70;95.60
15105;DHT22;7653;48.994;9.212;2023-11-21T06:06:04;8.70;95.60
15105;DHT22;7653;48.994;9.212;2023-11-21T06:08:30;8.80;95.70
15105;DHT22;7653;48.994;9.212;2023-11-21T06:10:55;8.80;95.60
15105;DHT22;7653;48.994;9.212;2023-11-21T06:13:21;8.80;95.60
15105;DHT22;7653;48.994;9.212;2023-11-21T06:15:50;8.70;95.70
15105;DHT22;7653;48.994;9.212;2023-11-21T06:18:16;8.70;95.30
15105;DHT22;7653;48.994;9.212;2023-11-21T06:20:47;8.70;95.50
15105;DHT22;7653;48.994;9.212;2023-11-21T06:23:13;8.80;95.70
15105;DHT22;7653;48.994;9.212;2023-11-21T06:25:39;8.80;95.80
15105;DHT22;7653;48.994;9.212;2023-11-21T06:28:05;8.90;95.70
15105;DHT22;7653;48.994;9.212;2023-11-21T06:30:31;8.90;95.60
15105;DHT22;7653;48.994;9.212;2023-11-21T06:32:57;8.90;95.40
15105;DHT22;7653;48.994;9.212;2023-11-21T06:35:23;8.90;95.30
15105;DHT22;7653;48.994;9.212;2023-11-21T06:37:48;8.80;95.30
15105;DHT22;7653;48.994;9.212;2023-11-21T06:40:15;8.90;95.50
15105;DHT22;7653;48.994;9.212;2023-11-21T06:42:41;8.90;95.60
15105;DHT22;7653;48.994;9.212;2023-11-21T06:45:07;8.90;95.50
15105;DHT22;7653;48.994;9.212;2023-11-21T06:47:33;8.90;95.50
15105;DHT22;7653;48.994;9.212;2023-11-21T06:50:00;9.00;95.60
15105;DHT22;7653;48.994;9.212;2023-11-21T06:52:26;8.80;95.50
15105;DHT22;7653;48.994;9.212;2023-11-21T06:54:51;8.90;95.70
15105;DHT22;7653;48.994;9.212;2023-11-21T06:57:17;8.90;95.80
15105;DHT22;7653;48.994;9.212;2023-11-21T06:59:43;8.90;95.90
15105;DHT22;7653;48.994;9.212;2023-11-21T07:02:09;8.90;95.90
15105;DHT22;7653;48.994;9.212;2023-11-21T07:04:35;9.00;95.90
15105;DHT22;7653;48.994;9.212;2023-11-21T07:07:02;9.00;95.70
15105;DHT22;7653;48.994;9.212;2023-11-21T07:09:28;8.90;95.40
15105;DHT22;7653;48.994;9.212;2023-11-21T07:11:54;8.90;95.50
15105;DHT22;7653;48.994;9.212;2023-11-21T07:14:20;9.00;95.70
15105;DHT22;7653;48.994;9.212;2023-11-21T07:16:47;8.90;95.60
15105;DHT22;7653;48.994;9.212;2023-11-21T07:19:13;9.00;95.70
15105;DHT22;7653;48.994;9.212;2023-11-21T07:21:39;8.90;95.40
15105;DHT22;7653;48.994;9.212;2023-11-21T07:24:06;8.90;95.70
15105;DHT22;7653;48.994;9.212;2023-11-21T07:26:33;9.00;95.70
15105;DHT22;7653;48.994;9.212;2023-11-21T07:29:00;8.90;95.60
15105;DHT22;7653;48.994;9.212;2023-11-21T07:31:26;9.00;95.90
15105;DHT22;7653;48.994;9.212;2023-11-21T07:33:52;9.00;95.90
15105;DHT22;7653;48.994;9.212;2023-11-21T07:36:19;9.10;95.80
15105;DHT22;7653;48.994;9.212;2023-11-21T07:38:46;9.10;95.80
15105;DHT22;7653;48.994;9.212;2023-11-21T07:41:12;9.20;95.40
15105;DHT22;7653;48.994;9.212;2023-11-21T07:43:44;9.10;95.10
15105;DHT22;7653;48.994;9.212;2023-11-21T07:46:11;9.20;95.10
15105;DHT22;7653;48.994;9.212;2023-11-21T07:48:41;9.30;95.00
15105;DHT22;7653;48.994;9.212;2023-11-21T07:51:07;9.30;94.30
15105;DHT22;7653;48.994;9.212;2023-11-21T07:53:34;9.30;94.10
15105;DHT22;7653;48.994;9.212;2023-11-21T07:56:07;9.30;93.80
15105;DHT22;7653;48.994;9.212;2023-11-21T07:58:36;9.50;93.60
15105;DHT22;7653;48.994;9.212;2023-11-21T08:01:03;9.50;93.30
15105;DHT22;7653;48.994;9.212;2023-11-21T08:03:29;9.60;93.30
15105;DHT22;7653;48.994;9.212;2023-11-21T08:05:56;9.40;93.00
15105;DHT22;7653;48.994;9.212;2023-11-21T08:08:22;9.50;93.30
15105;DHT22;7653;48.994;9.212;2023-11-21T08:10:47;9.70;93.00
15105;DHT22;7653;48.994;9.212;2023-11-21T08:13:26;9.70;91.90
15105;DHT22;7653;48.994;9.212;2023-11-21T08:15:55;9.50;90.50
15105;DHT22;7653;48.994;9.212;2023-11-21T08:18:22;9.60;90.30
15105;DHT22;7653;48.994;9.212;2023-11-21T08:20:48;9.70;90.20
15105;DHT22;7653;48.994;9.212;2023-11-21T08:23:17;9.80;88.90
15105;DHT22;7653;48.994;9.212;2023-11-21T08:25:45;9.80;87.30
15105;DHT22;7653;48.994;9.212;2023-11-21T08:28:11;9.90;87.00
15105;DHT22;7653;48.994;9.212;2023-11-21T08:30:37;9.90;87.10
15105;DHT22;7653;48.994;9.212;2023-11-21T08:33:03;9.70;88.70
15105;DHT22;7653;48.994;9.212;2023-11-21T08:35:29;9.70;87.70
15105;DHT22;7653;48.994;9.212;2023-11-21T08:37:55;9.60;88.60
15105;DHT22;7653;48.994;9.212;2023-11-21T08:40:21;9.70;90.10
15105;DHT22;7653;48.994;9.212;2023-11-21T08:42:47;9.50;90.70
15105;DHT22;7653;48.994;9.212;2023-11-21T08:45:16;9.50;90.60
15105;DHT22;7653;48.994;9.212;2023-11-21T08:47:43;9.50;89.10
15105;DHT22;7653;48.994;9.212;2023-11-21T08:50:10;9.60;89.50
15105;DHT22;7653;48.994;9.212;2023-11-21T08:52:37;9.70;88.70
15105;DHT22;7653;48.994;9.212;2023-11-21T08:55:04;9.80;87.60
15105;DHT22;7653;48.994;9.212;2023-11-21T08:57:36;9.80;87.60
15105;DHT22;7653;48.994;9.212;2023-11-21T09:00:07;9.90;87.20
15105;DHT22;7653;48.994;9.212;2023-11-21T09:02:35;9.90;85.20
15105;DHT22;7653;48.994;9.212;2023-11-21T09:05:02;9.80;84.10
15105;DHT22;7653;48.994;9.212;2023-11-21T09:07:29;9.70;83.10
15105;DHT22;7653;48.994;9.212;2023-11-21T09:09:54;9.70;84.20
15105;DHT22;7653;48.994;9.212;2023-11-21T09:12:20;9.80;85.20
15105;DHT22;7653;48.994;9.212;2023-11-21T09:14:46;9.80;84.30
15105;DHT22;7653;48.994;9.212;2023-11-21T09:17:12;9.90;83.10
15105;DHT22;7653;48.994;9.212;2023-11-21T09:19:38;9.80;83.80
15105;DHT22;7653;48.994;9.212;2023-11-21T09:22:04;9.90;84.60
15105;DHT22;7653;48.994;9.212;2023-11-21T09:24:34;10.00;83.20
15105;DHT22;7653;48.994;9.212;2023-11-21T09:26:59;9.90;84.30
15105;DHT22;7653;48.994;9.212;2023-11-21T09:29:28;9.80;82.20
15105;DHT22;7653;48.994;9.212;2023-11-21T09:31:55;9.70;85.40
15105;DHT22;7653;48.994;9.212;2023-11-21T09:34:22;9.70;88.10
15105;DHT22;7653;48.994;9.212;2023-11-21T09:36:48;10.00;86.90
15105;DHT22;7653;48.994;9.212;2023-11-21T09:39:14;10.10;83.50
15105;DHT22;7653;48.994;9.212;2023-11-21T09:41:44;10.20;85.00
15105;DHT22;7653;48.994;9.212;2023-11-21T09:44:13;10.30;85.60
15105;DHT22;7653;48.994;9.212;2023-11-21T09:46:42;10.20;84.80
15105;DHT22;7653;48.994;9.212;2023-11-21T09:49:09;10.40;83.30
15105;DHT22;7653;48.994;9.212;2023-11-21T09:51:40;10.60;80.60
15105;DHT22;7653;48.994;9.212;2023-11-21T09:54:10;10.70;78.80
15105;DHT22;7653;48.994;9.212;2023-11-21T09:56:38;10.90;76.10
15105;DHT22;7653;48.994;9.212;2023-11-21T09:59:04;10.90;71.80
15105;DHT22;7653;48.994;9.212;2023-11-21T10:01:36;10.90;73.70
15105;DHT22;7653;48.994;9.212;2023-11-21T10:04:03;11.00;72.30
15105;DHT22;7653;48.994;9.212;2023-11-21T10:06:30;10.90;70.30
15105;DHT22;7653;48.994;9.212;2023-11-21T10:08:58;10.90;71.10
15105;DHT22;7653;48.994;9.212;2023-11-21T10:11:27;10.90;70.30
15105;DHT22;7653;48.994;9.212;2023-11-21T10:13:55;10.90;71.10
15105;DHT22;7653;48.994;9.212;2023-11-21T10:16:25;10.90;72.70
15105;DHT22;7653;48.994;9.212;2023-11-21T10:18:53;10.90;72.70
15105;DHT22;7653;48.994;9.212;2023-11-21T10:21:21;11.00;72.40
15105;DHT22;7653;48.994;9.212;2023-11-21T10:23:47;10.90;73.10
15105;DHT22;7653;48.994;9.212;2023-11-21T10:26:13;11.00;77.30
15105;DHT22;7653;48.994;9.212;2023-11-21T10:29:02;10.60;76.90
15105;DHT22;7653;48.994;9.212;2023-11-21T10:31:31;10.50;81.00
15105;DHT22;7653;48.994;9.212;2023-11-21T10:34:14;10.10;88.10
15105;DHT22;7653;48.994;9.212;2023-11-21T10:36:41;10.10;89.60
15105;DHT22;7653;48.994;9.212;2023-11-21T10:39:06;10.00;90.60
15105;DHT22;7653;48.994;9.212;2023-11-21T10:41:33;9.80;91.30
15105;DHT22;7653;48.994;9.212;2023-11-21T10:44:01;9.70;91.90
15105;DHT22;7653;48.994;9.212;2023-11-21T10:46:29;10.00;92.50
15105;DHT22;7653;48.994;9.212;2023-11-21T10:48:57;10.10;91.60
15105;DHT22;7653;48.994;9.212;2023-11-21T10:51:22;10.10;90.80
15105;DHT22;7653;48.994;9.212;2023-11-21T10:53:51;10.20;90.70
15105;DHT22;7653;48.994;9.212;2023-11-21T10:56:18;10.40;90.40
15105;DHT22;7653;48.994;9.212;2023-11-21T10:58:45;10.50;88.40
15105;DHT22;7653;48.994;9.212;2023-11-21T11:01:11;10.50;87.50
15105;DHT22;7653;48.994;9.212;2023-11-21T11:03:39;10.60;85.10
15105;DHT22;7653;48.994;9.212;2023-11-21T11:06:07;10.80;85.30
15105;DHT22;7653;48.994;9.212;2023-11-21T11:08:40;10.80;81.10
15105;DHT22;7653;48.994;9.212;2023-11-21T11:11:06;10.60;80.90
15105;DHT22;7653;48.994;9.212;2023-11-21T11:13:32;10.70;79.50
15105;DHT22;7653;48.994;9.212;2023-11-21T11:16:00;10.70;76.70
15105;DHT22;7653;48.994;9.212;2023-11-21T11:18:27;10.80;78.80
15105;DHT22;7653;48.994;9.212;2023-11-21T11:21:12;11.00;76.30
15105;DHT22;7653;48.994;9.212;2023-11-21T11:26:24;10.90;76.80
15105;DHT22;7653;48.994;9.212;2023-11-21T11:42:04;11.00;73.90
15105;DHT22;7653;48.994;9.212;2023-11-21T11:47:22;10.80;73.60
15105;DHT22;7653;48.994;9.212;2023-11-21T11:52:49;10.50;75.80
15105;DHT22;7653;48.994;9.212;2023-11-21T11:55:18;10.50;76.40
15105;DHT22;7653;48.994;9.212;2023-11-21T11:57:46;10.50;75.30
15105;DHT22;7653;48.994;9.212;2023-11-21T12:05:21;10.30;76.90
15105;DHT22;7653;48.994;9.212;2023-11-21T12:07:52;10.30;79.20
15105;DHT22;7653;48.994;9.212;2023-11-21T12:10:23;10.20;80.60
15105;DHT22;7653;48.994;9.212;2023-11-21T12:13:08;10.00;82.50
15105;DHT22;7653;48.994;9.212;2023-11-21T12:15:36;9.90;87.40
15105;DHT22;7653;48.994;9.212;2023-11-21T12:18:02;10.00;88.50
15105;DHT22;7653;48.994;9.212;2023-11-21T12:20:28;9.70;88.70
15105;DHT22;7653;48.994;9.212;2023-11-21T12:22:55;9.70;91.10
15105;DHT22;7653;48.994;9.212;2023-11-21T12:25:22;9.50;92.00
15105;DHT22;7653;48.994;9.212;2023-11-21T12:27:49;9.50;93.30
15105;DHT22;7653;48.994;9.212;2023-11-21T12:30:20;9.60;93.40
15105;DHT22;7653;48.994;9.212;2023-11-21T12:32:53;9.70;93.40
15105;DHT22;7653;48.994;9.212;2023-11-21T12:35:21;9.60;93.50
15105;DHT22;7653;48.994;9.212;2023-11-21T12:37:47;9.70;94.10
15105;DHT22;7653;48.994;9.212;2023-11-21T12:40:14;9.80;94.60
15105;DHT22;7653;48.994;9.212;2023-11-21T12:42:42;9.70;94.60
15105;DHT22;7653;48.994;9.212;2023-11-21T12:47:35;9.60;94.40
15105;DHT22;7653;48.994;9.212;2023-11-21T12:50:02;9.90;95.00
15105;DHT22;7653;48.994;9.212;2023-11-21T12:52:28;9.80;93.40
15105;DHT22;7653;48.994;9.212;2023-11-21T12:54:54;9.80;93.40
15105;DHT22;7653;48.994;9.212;2023-11-21T12:57:25;9.80;92.50
15105;DHT22;7653;48.994;9.212;2023-11-21T12:59:57;9.80;92.40
15105;DHT22;7653;48.994;9.212;2023-11-21T13:02:26;9.90;92.50
15105;DHT22;7653;48.994;9.212;2023-11-21T13:04:52;9.90;91.60
15105;DHT22;7653;48.994;9.212;2023-11-21T13:07:22;9.80;91.20
15105;DHT22;7653;48.994;9.212;2023-11-21T13:09:49;9.80;91.20
15105;DHT22;7653;48.994;9.212;2023-11-21T13:12:17;9.80;90.50
15105;DHT22;7653;48.994;9.212;2023-11-21T13:14:46;9.80;90.70
15105;DHT22;7653;48.994;9.212;2023-11-21T13:17:12;9.70;90.40
15105;DHT22;7653;48.994;9.212;2023-11-21T13:19:38;10.00;90.60
15105;DHT22;7653;48.994;9.212;2023-11-21T13:22:03;10.00;88.90
15105;DHT22;7653;48.994;9.212;2023-11-21T13:24:29;10.10;90.20
15105;DHT22;7653;48.994;9.212;2023-11-21T13:26:56;10.10;88.40
15105;DHT22;7653;48.994;9.212;2023-11-21T13:29:21;10.20;88.20
15105;DHT22;7653;48.994;9.212;2023-11-21T13:31:48;10.30;88.50
15105;DHT22;7653;48.994;9.212;2023-11-21T13:34:16;10.40;84.40
15105;DHT22;7653;48.994;9.212;2023-11-21T13:36:44;10.40;83.80
15105;DHT22;7653;48.994;9.212;2023-11-21T13:39:11;10.50;83.90
15105;DHT22;7653;48.994;9.212;2023-11-21T13:41:40;10.40;79.30
15105;DHT22;7653;48.994;9.212;2023-11-21T13:44:06;10.50;81.80
15105;DHT22;7653;48.994;9.212;2023-11-21T13:46:51;10.40;79.20
15105;DHT22;7653;48.994;9.212;2023-11-21T13:49:17;10.50;79.30
15105;DHT22;7653;48.994;9.212;2023-11-21T13:51:46;10.50;79.30
15105;DHT22;7653;48.994;9.212;2023-11-21T13:54:16;10.40;77.30
15105;DHT22;7653;48.994;9.212;2023-11-21T13:56:42;10.40;79.20
15105;DHT22;7653;48.994;9.212;2023-11-21T13:59:10;10.50;76.50
15105;DHT22;7653;48.994;9.212;2023-11-21T14:01:57;10.50;76.60
15105;DHT22;7653;48.994;9.212;2023-11-21T14:04:25;10.30;77.70
15105;DHT22;7653;48.994;9.212;2023-11-21T14:07:08;10.30;79.10
15105;DHT22;7653;48.994;9.212;2023-11-21T14:09:50;10.40;78.10
15105;DHT22;7653;48.994;9.212;2023-11-21T14:12:17;10.30;79.10
15105;DHT22;7653;48.994;9.212;2023-11-21T14:14:43;10.10;79.80
15105;DHT22;7653;48.994;9.212;2023-11-21T14:17:10;10.20;79.80
15105;DHT22;7653;48.994;9.212;2023-11-21T14:19:36;10.20;81.20
15105;DHT22;7653;48.994;9.212;2023-11-21T14:22:06;10.30;78.20
15105;DHT22;7653;48.994;9.212;2023-11-21T14:24:33;10.20;79.00
15105;DHT22;7653;48.994;9.212;2023-11-21T14:26:59;10.20;81.00
15105;DHT22;7653;48.994;9.212;2023-11-21T14:29:25;10.00;80.80
15105;DHT22;7653;48.994;9.212;2023-11-21T14:31:52;10.00;80.40
15105;DHT22;7653;48.994;9.212;2023-11-21T14:34:24;10.10;80.70
15105;DHT22;7653;48.994;9.212;2023-11-21T14:36:52;10.00;79.90
15105;DHT22;7653;48.994;9.212;2023-11-21T14:39:17;10.00;78.80
15105;DHT22;7653;48.994;9.212;2023-11-21T14:41:52;10.00;78.80
15105;DHT22;7653;48.994;9.212;2023-11-21T14:44:18;10.00;78.80
15105;DHT22;7653;48.994;9.212;2023-11-21T14:46:44;10.00;78.80
15105;DHT22;7653;48.994;9.212;2023-11-21T14:49:12;10.10;79.40
15105;DHT22;7653;48.994;9.212;2023-11-21T14:51:52;10.00;79.00
15105;DHT22;7653;48.994;9.212;2023-11-21T14:54:29;9.90;80.70
15105;DHT22;7653;48.994;9.212;2023-11-21T14:57:14;9.80;82.30
15105;DHT22;7653;48.994;9.212;2023-11-21T14:59:48;9.90;83.90
15105;DHT22;7653;48.994;9.212;2023-11-21T15:02:18;9.70;84.10
15105;DHT22;7653;48.994;9.212;2023-11-21T15:04:48;9.70;84.20
15105;DHT22;7653;48.994;9.212;2023-11-21T15:07:17;9.40;84.00
15105;DHT22;7653;48.994;9.212;2023-11-21T15:09:43;9.50;86.30
15105;DHT22;7653;48.994;9.212;2023-11-21T15:12:11;9.50;85.20
15105;DHT22;7653;48.994;9.212;2023-11-21T15:14:50;9.40;85.60
15105;DHT22;7653;48.994;9.212;2023-11-21T15:17:19;9.50;85.60
15105;DHT22;7653;48.994;9.212;2023-11-21T15:19:51;9.60;85.40
15105;DHT22;7653;48.994;9.212;2023-11-21T15:22:17;9.70;84.80
15105;DHT22;7653;48.994;9.212;2023-11-21T15:24:45;9.60;84.60
15105;DHT22;7653;48.994;9.212;2023-11-21T15:27:15;9.50;84.50
15105;DHT22;7653;48.994;9.212;2023-11-21T15:29:42;9.50;85.80
15105;DHT22;7653;48.994;9.212;2023-11-21T15:32:09;9.50;85.20
15105;DHT22;7653;48.994;9.212;2023-11-21T15:34:35;9.40;85.00
15105;DHT22;7653;48.994;9.212;2023-11-21T15:37:02;9.50;85.70
15105;DHT22;7653;48.994;9.212;2023-11-21T15:39:28;9.40;85.90
15105;DHT22;7653;48.994;9.212;2023-11-21T15:41:59;9.40;86.30
15105;DHT22;7653;48.994;9.212;2023-11-21T15:44:25;9.40;86.90
15105;DHT22;7653;48.994;9.212;2023-11-21T15:46:55;9.30;88.40
15105;DHT22;7653;48.994;9.212;2023-11-21T15:49:21;9.30;87.30
15105;DHT22;7653;48.994;9.212;2023-11-21T15:51:48;9.30;88.40
15105;DHT22;7653;48.994;9.212;2023-11-21T15:54:23;9.10;88.20
15105;DHT22;7653;48.994;9.212;2023-11-21T15:56:51;9.10;89.00
15105;DHT22;7653;48.994;9.212;2023-11-21T15:59:25;9.20;89.90
15105;DHT22;7653;48.994;9.212;2023-11-21T16:01:59;9.10;88.30
15105;DHT22;7653;48.994;9.212;2023-11-21T16:04:25;9.00;88.20
15105;DHT22;7653;48.994;9.212;2023-11-21T16:06:54;9.00;88.10
15105;DHT22;7653;48.994;9.212;2023-11-21T16:09:20;8.80;87.90
15105;DHT22;7653;48.994;9.212;2023-11-21T16:12:00;8.80;87.90
15105;DHT22;7653;48.994;9.212;2023-11-21T16:14:28;8.70;87.80
15105;DHT22;7653;48.994;9.212;2023-11-21T16:17:01;8.60;88.20
15105;DHT22;7653;48.994;9.212;2023-11-21T16:19:26;8.60;89.10
15105;DHT22;7653;48.994;9.212;2023-11-21T16:21:52;8.70;89.70
15105;DHT22;7653;48.994;9.212;2023-11-21T16:24:18;8.80;89.80
15105;DHT22;7653;48.994;9.212;2023-11-21T16:26:47;8.80;89.20
15105;DHT22;7653;48.994;9.212;2023-11-21T16:29:13;8.80;88.10